Time;durP1;ratioP1;P1;durP2;ratioP2;P2;SDS_P1;SDS_P2;PMS_P1;PMS_P2;Temp;Humidity;BMP_temperature;BMP_pressure;BME280_temperature;BME280_humidity;BME280_pressure;Samples;Min_cycle;Max_cycle;Signal;HPM_P1;HPM_P2
2022/05/08 00:01:49;;;;;;;;;;;12.90;99.90;;;;;;4990160;28;19913;-59
2022/05/08 00:04:15;;;;;;;;;;;12.70;99.90;;;;;;4988735;28;19964;-60
2022/05/08 00:06:40;;;;;;;;;;;12.70;99.90;;;;;;4986016;28;20269;-59
2022/05/08 00:09:06;;;;;;;;;;;12.80;99.90;;;;;;4985029;28;19910;-59
2022/05/08 00:11:31;;;;;;;;;;;12.70;99.90;;;;;;4991614;28;20367;-59
2022/05/08 00:13:57;;;;;;;;;;;12.60;99.90;;;;;;4989648;28;20132;-60
2022/05/08 00:16:23;;;;;;;;;;;12.50;99.90;;;;;;4988679;28;19948;-59
2022/05/08 00:18:48;;;;;;;;;;;12.40;99.90;;;;;;4986919;28;19916;-59
2022/05/08 00:21:14;;;;;;;;;;;12.50;99.90;;;;;;4989309;28;20308;-59
2022/05/08 00:23:39;;;;;;;;;;;12.40;99.90;;;;;;4987710;28;19909;-59
2022/05/08 00:26:07;;;;;;;;;;;12.40;99.90;;;;;;4991870;28;20306;-59
2022/05/08 00:28:36;;;;;;;;;;;12.40;99.90;;;;;;4986581;28;19967;-60
2022/05/08 00:31:02;;;;;;;;;;;12.50;99.90;;;;;;4989114;28;19921;-59
2022/05/08 00:33:27;;;;;;;;;;;12.50;99.90;;;;;;4987229;28;19926;-59
2022/05/08 00:35:54;;;;;;;;;;;12.40;99.90;;;;;;4986931;28;19914;-59
2022/05/08 00:38:19;;;;;;;;;;;12.30;99.90;;;;;;4986350;28;20004;-59
2022/05/08 00:40:44;;;;;;;;;;;12.20;99.90;;;;;;4983937;28;20449;-59
2022/05/08 00:43:31;;;;;;;;;;;12.10;99.90;;;;;;4987432;28;19910;-59
2022/05/08 00:45:56;;;;;;;;;;;12.00;99.90;;;;;;4986181;28;19909;-59
2022/05/08 00:48:22;;;;;;;;;;;12.00;99.90;;;;;;4986323;28;19933;-59
2022/05/08 00:50:48;;;;;;;;;;;12.00;99.90;;;;;;4985606;28;20390;-60
2022/05/08 00:53:13;;;;;;;;;;;11.90;99.90;;;;;;4993121;28;20095;-59
2022/05/08 00:55:39;;;;;;;;;;;11.80;99.90;;;;;;4982402;28;19909;-59
2022/05/08 00:58:05;;;;;;;;;;;11.80;99.90;;;;;;4986092;28;19971;-59
2022/05/08 01:00:30;;;;;;;;;;;11.70;99.90;;;;;;4982646;28;19953;-59
2022/05/08 01:02:59;;;;;;;;;;;11.70;99.90;;;;;;4985952;28;19965;-59
2022/05/08 01:05:24;;;;;;;;;;;11.70;99.90;;;;;;4985839;28;19910;-59
2022/05/08 01:07:50;;;;;;;;;;;11.70;99.90;;;;;;4984773;28;20386;-59
2022/05/08 01:10:16;;;;;;;;;;;11.70;99.90;;;;;;4985646;28;20001;-59
2022/05/08 01:12:44;;;;;;;;;;;11.70;99.90;;;;;;4986729;28;19960;-59
2022/05/08 01:15:14;;;;;;;;;;;11.60;99.90;;;;;;4988538;28;19913;-59
2022/05/08 01:17:39;;;;;;;;;;;11.60;99.90;;;;;;4985626;28;20007;-59
2022/05/08 01:20:05;;;;;;;;;;;11.60;99.90;;;;;;4985770;28;20008;-59
2022/05/08 01:22:31;;;;;;;;;;;11.60;99.90;;;;;;4983021;28;20357;-59
2022/05/08 01:24:57;;;;;;;;;;;11.50;99.90;;;;;;4985268;28;19910;-59
2022/05/08 01:27:23;;;;;;;;;;;11.40;99.90;;;;;;4985464;28;19960;-59
2022/05/08 01:29:49;;;;;;;;;;;11.50;99.90;;;;;;4979957;28;20017;-59
2022/05/08 01:32:14;;;;;;;;;;;11.50;99.90;;;;;;4984993;28;19948;-59
2022/05/08 01:34:39;;;;;;;;;;;11.40;99.90;;;;;;4984090;28;19910;-59
2022/05/08 01:37:05;;;;;;;;;;;11.50;99.90;;;;;;4989247;28;19937;-60
2022/05/08 01:39:30;;;;;;;;;;;11.40;99.90;;;;;;4988963;28;19910;-59
2022/05/08 01:41:56;;;;;;;;;;;11.40;99.90;;;;;;4988893;28;20081;-60
2022/05/08 01:44:24;;;;;;;;;;;11.40;99.90;;;;;;4995132;28;19910;-59
2022/05/08 01:48:21;;;;;;;;;;;11.40;99.90;;;;;;4988991;28;20278;-59
2022/05/08 01:49:34;;;;;;;;;;;11.30;99.90;;;;;;4984827;28;19928;-59
2022/05/08 01:52:00;;;;;;;;;;;11.20;99.90;;;;;;4989558;28;19906;-59
2022/05/08 01:54:25;;;;;;;;;;;11.20;99.90;;;;;;4991693;28;20237;-59
2022/05/08 01:56:51;;;;;;;;;;;11.30;99.90;;;;;;4990725;28;19909;-59
2022/05/08 01:59:16;;;;;;;;;;;11.30;99.90;;;;;;4986587;28;19928;-59
2022/05/08 02:01:43;;;;;;;;;;;11.10;99.90;;;;;;4988182;28;19913;-59
2022/05/08 02:04:15;;;;;;;;;;;11.10;99.90;;;;;;4989770;28;19949;-59
2022/05/08 02:06:43;;;;;;;;;;;11.00;99.90;;;;;;4984547;28;20263;-59
2022/05/08 02:09:09;;;;;;;;;;;11.00;99.90;;;;;;4988412;28;19920;-59
2022/05/08 02:11:34;;;;;;;;;;;11.20;99.90;;;;;;4987931;28;19909;-59
2022/05/08 02:14:00;;;;;;;;;;;10.80;99.90;;;;;;4988438;28;20153;-59
2022/05/08 02:16:25;;;;;;;;;;;10.90;99.90;;;;;;4988456;28;19918;-59
2022/05/08 02:18:51;;;;;;;;;;;10.70;99.90;;;;;;4987920;28;19909;-60
2022/05/08 02:21:17;;;;;;;;;;;10.70;99.90;;;;;;4986462;28;20334;-59
2022/05/08 02:23:42;;;;;;;;;;;10.70;99.90;;;;;;4987608;28;20321;-60
2022/05/08 02:26:08;;;;;;;;;;;10.80;99.90;;;;;;4988090;28;19909;-59
2022/05/08 02:28:33;;;;;;;;;;;10.50;99.90;;;;;;4984817;28;20338;-59
2022/05/08 02:30:59;;;;;;;;;;;;;;;;;;4983791;28;20374;-59
2022/05/08 02:33:25;;;;;;;;;;;12.10;99.90;;;;;;4989508;28;19925;-58
2022/05/08 02:35:50;;;;;;;;;;;10.20;99.90;;;;;;4990230;28;19913;-59
2022/05/08 02:38:16;;;;;;;;;;;10.10;99.90;;;;;;4989340;28;19988;-60
2022/05/08 02:40:41;;;;;;;;;;;10.20;99.90;;;;;;4987396;28;19949;-59
2022/05/08 02:43:07;;;;;;;;;;;10.10;99.90;;;;;;4989037;28;19909;-59
2022/05/08 02:45:32;;;;;;;;;;;10.20;99.90;;;;;;4987539;28;20286;-60
2022/05/08 02:47:58;;;;;;;;;;;10.10;99.90;;;;;;4987216;28;19914;-59
2022/05/08 02:50:24;;;;;;;;;;;10.00;99.90;;;;;;4988016;28;19917;-59
2022/05/08 02:52:50;;;;;;;;;;;10.10;99.90;;;;;;4987162;28;20429;-59
2022/05/08 03:00:45;;;;;;;;;;;10.00;99.90;;;;;;4985037;28;20027;-60
2022/05/08 03:03:11;;;;;;;;;;;9.90;99.90;;;;;;4987720;28;19913;-59
2022/05/08 03:05:37;;;;;;;;;;;9.80;99.90;;;;;;4986668;28;19916;-58
2022/05/08 03:08:04;;;;;;;;;;;9.80;99.90;;;;;;4984915;28;20004;-59
2022/05/08 03:11:25;;;;;;;;;;;9.50;99.90;;;;;;4987844;28;19910;-59
2022/05/08 03:13:16;;;;;;;;;;;9.60;99.90;;;;;;4985747;28;20023;-59
2022/05/08 03:15:41;;;;;;;;;;;9.50;99.90;;;;;;4989537;28;19949;-59
2022/05/08 03:18:07;;;;;;;;;;;9.60;99.90;;;;;;4988555;28;19984;-60
2022/05/08 03:20:33;;;;;;;;;;;9.70;99.90;;;;;;4987475;28;19917;-59
2022/05/08 03:22:59;;;;;;;;;;;9.50;99.90;;;;;;4984947;28;19910;-59
2022/05/08 03:25:24;;;;;;;;;;;9.50;99.90;;;;;;4988597;28;20412;-59
2022/05/08 03:27:50;;;;;;;;;;;9.60;99.90;;;;;;4986720;28;19913;-59
2022/05/08 03:30:15;;;;;;;;;;;9.70;99.90;;;;;;4984968;28;20007;-59
2022/05/08 03:32:41;;;;;;;;;;;9.50;99.90;;;;;;4983218;28;19933;-59
2022/05/08 03:35:06;;;;;;;;;;;9.50;99.90;;;;;;5018080;28;20464;-59
2022/05/08 03:37:33;;;;;;;;;;;9.40;99.90;;;;;;4986669;28;19917;-59
2022/05/08 03:39:59;;;;;;;;;;;9.50;99.90;;;;;;4986392;28;20318;-59
2022/05/08 03:42:24;;;;;;;;;;;9.40;99.90;;;;;;4986872;28;19916;-59
2022/05/08 03:44:53;;;;;;;;;;;9.30;99.90;;;;;;4985846;28;19909;-60
2022/05/08 03:47:19;;;;;;;;;;;9.40;99.90;;;;;;4983875;28;19968;-59
2022/05/08 03:49:44;;;;;;;;;;;9.30;99.90;;;;;;4985980;28;19917;-59
2022/05/08 03:52:10;;;;;;;;;;;9.40;99.90;;;;;;4992530;28;19909;-59
2022/05/08 03:54:36;;;;;;;;;;;9.30;99.90;;;;;;4987175;28;19928;-59
2022/05/08 03:57:01;;;;;;;;;;;9.40;99.90;;;;;;4988971;28;20026;-58
2022/05/08 03:59:27;;;;;;;;;;;9.40;99.90;;;;;;4984627;28;19944;-59
2022/05/08 04:01:54;;;;;;;;;;;9.40;99.90;;;;;;4985448;28;20068;-59
2022/05/08 04:04:20;;;;;;;;;;;9.30;99.90;;;;;;4987106;28;19914;-59
2022/05/08 04:06:45;;;;;;;;;;;9.30;99.90;;;;;;4985559;28;19921;-59
2022/05/08 04:09:11;;;;;;;;;;;9.20;99.90;;;;;;4985326;28;19976;-59
2022/05/08 04:11:36;;;;;;;;;;;9.20;99.90;;;;;;4985636;28;19909;-59
2022/05/08 04:14:02;;;;;;;;;;;9.30;99.90;;;;;;4985627;28;19918;-59
2022/05/08 04:16:28;;;;;;;;;;;9.50;99.90;;;;;;4983343;28;20392;-59
2022/05/08 04:18:53;;;;;;;;;;;9.40;99.90;;;;;;4985540;28;19910;-59
2022/05/08 04:21:19;;;;;;;;;;;9.40;99.90;;;;;;4985995;28;19909;-59
2022/05/08 04:26:30;;;;;;;;;;;9.40;99.90;;;;;;4985235;28;20388;-59
2022/05/08 04:28:56;;;;;;;;;;;9.50;99.90;;;;;;4986093;28;19920;-59
2022/05/08 04:31:22;;;;;;;;;;;9.60;99.90;;;;;;4983334;28;19983;-59
2022/05/08 04:33:47;;;;;;;;;;;9.40;99.90;;;;;;4985777;28;19972;-60
2022/05/08 04:36:13;;;;;;;;;;;9.40;99.90;;;;;;4988752;28;20028;-59
2022/05/08 04:38:38;;;;;;;;;;;9.60;99.90;;;;;;4986182;28;19956;-59
2022/05/08 04:41:04;;;;;;;;;;;9.50;99.90;;;;;;4985345;28;19917;-59
2022/05/08 04:43:30;;;;;;;;;;;9.50;99.90;;;;;;4985563;28;20389;-59
2022/05/08 04:45:55;;;;;;;;;;;9.50;99.90;;;;;;4987834;28;19921;-59
2022/05/08 04:48:20;;;;;;;;;;;9.60;99.90;;;;;;4985774;28;20415;-59
2022/05/08 04:50:46;;;;;;;;;;;9.50;99.90;;;;;;4985794;28;19909;-59
2022/05/08 04:53:11;;;;;;;;;;;9.60;99.90;;;;;;4985747;28;20524;-59
2022/05/08 04:55:37;;;;;;;;;;;9.40;99.90;;;;;;4985900;28;20004;-59
2022/05/08 04:58:02;;;;;;;;;;;9.30;99.90;;;;;;4985512;28;20277;-59
2022/05/08 05:00:28;;;;;;;;;;;9.30;99.90;;;;;;4983784;28;19914;-59
2022/05/08 05:02:53;;;;;;;;;;;9.30;99.90;;;;;;4985143;28;20332;-58
2022/05/08 05:05:19;;;;;;;;;;;9.10;99.90;;;;;;4985668;28;19909;-59
2022/05/08 05:07:44;;;;;;;;;;;9.00;99.90;;;;;;4983040;28;20480;-59
2022/05/08 05:10:10;;;;;;;;;;;9.00;99.90;;;;;;4988244;28;20292;-59
2022/05/08 05:12:36;;;;;;;;;;;9.10;99.90;;;;;;4989981;28;20365;-59
2022/05/08 05:15:02;;;;;;;;;;;9.00;99.90;;;;;;4988449;28;19910;-59
2022/05/08 05:17:29;;;;;;;;;;;9.20;99.90;;;;;;4991916;28;19906;-59
2022/05/08 05:19:54;;;;;;;;;;;9.10;99.90;;;;;;4990741;28;19943;-59
2022/05/08 05:22:20;;;;;;;;;;;9.10;99.90;;;;;;4989172;28;19953;-59
2022/05/08 05:24:46;;;;;;;;;;;9.20;99.90;;;;;;4989595;28;20001;-59
2022/05/08 05:27:11;;;;;;;;;;;9.30;99.90;;;;;;4990034;28;20008;-58
2022/05/08 05:29:37;;;;;;;;;;;9.30;99.90;;;;;;4986861;28;20373;-58
2022/05/08 05:32:02;;;;;;;;;;;9.20;99.90;;;;;;4988243;28;20012;-59
2022/05/08 05:34:28;;;;;;;;;;;9.40;99.90;;;;;;4985240;28;19921;-59
2022/05/08 05:36:54;;;;;;;;;;;9.50;99.90;;;;;;4988858;28;19910;-59
2022/05/08 05:39:19;;;;;;;;;;;9.60;99.90;;;;;;4989315;28;20297;-59
2022/05/08 05:41:45;;;;;;;;;;;9.60;99.90;;;;;;4988989;28;20016;-59
2022/05/08 05:44:11;;;;;;;;;;;9.60;99.90;;;;;;4989235;28;20008;-59
2022/05/08 05:49:20;;;;;;;;;;;9.40;99.90;;;;;;4992135;28;19916;-58
2022/05/08 05:51:46;;;;;;;;;;;9.50;99.90;;;;;;4988690;28;20203;-59
2022/05/08 05:54:11;;;;;;;;;;;9.70;99.90;;;;;;4988712;28;19922;-59
2022/05/08 05:56:37;;;;;;;;;;;9.40;99.90;;;;;;4990894;28;20374;-59
2022/05/08 05:59:03;;;;;;;;;;;9.40;99.90;;;;;;4990217;28;19921;-59
2022/05/08 06:01:28;;;;;;;;;;;9.50;99.90;;;;;;4989136;28;19913;-59
2022/05/08 06:03:54;;;;;;;;;;;9.50;99.90;;;;;;4988502;28;19909;-58
2022/05/08 06:06:19;;;;;;;;;;;9.60;99.90;;;;;;4994222;28;19985;-59
2022/05/08 06:08:46;;;;;;;;;;;10.10;99.90;;;;;;4988192;28;19917;-59
2022/05/08 06:11:12;;;;;;;;;;;10.20;99.90;;;;;;4988351;28;20205;-59
2022/05/08 06:13:38;;;;;;;;;;;10.30;99.90;;;;;;4988193;28;19913;-59
2022/05/08 06:16:03;;;;;;;;;;;10.40;99.90;;;;;;4987778;28;19910;-59
2022/05/08 06:18:29;;;;;;;;;;;10.30;99.90;;;;;;4988272;28;20392;-59
2022/05/08 06:20:54;;;;;;;;;;;10.60;99.90;;;;;;4986672;28;20004;-60
2022/05/08 06:23:20;;;;;;;;;;;10.20;99.90;;;;;;4986873;28;19909;-60
2022/05/08 06:25:45;;;;;;;;;;;10.60;99.90;;;;;;4988053;28;20380;-59
2022/05/08 06:28:11;;;;;;;;;;;10.60;99.90;;;;;;4988303;28;19916;-58
2022/05/08 06:30:36;;;;;;;;;;;10.60;99.90;;;;;;4986054;28;19980;-60
2022/05/08 06:33:02;;;;;;;;;;;10.90;99.90;;;;;;4986703;28;20281;-59
2022/05/08 06:35:28;;;;;;;;;;;10.70;99.90;;;;;;4988687;28;19996;-59
2022/05/08 06:37:54;;;;;;;;;;;10.70;99.90;;;;;;4990556;28;19913;-59
2022/05/08 06:40:21;;;;;;;;;;;10.70;99.90;;;;;;4988466;28;19932;-59
2022/05/08 06:42:46;;;;;;;;;;;10.70;99.90;;;;;;4986657;28;19916;-59
2022/05/08 06:45:12;;;;;;;;;;;10.80;99.90;;;;;;4987844;28;19910;-60
2022/05/08 06:47:38;;;;;;;;;;;10.80;99.90;;;;;;4987981;28;20385;-59
2022/05/08 06:50:03;;;;;;;;;;;11.30;99.90;;;;;;4987580;28;19996;-60
2022/05/08 06:52:29;;;;;;;;;;;11.60;99.90;;;;;;4987279;28;19914;-60
2022/05/08 06:54:54;;;;;;;;;;;12.00;99.90;;;;;;4987116;28;20329;-58
2022/05/08 06:57:19;;;;;;;;;;;11.80;99.90;;;;;;5017185;28;19916;-59
2022/05/08 07:02:50;;;;;;;;;;;11.80;99.90;;;;;;5020218;28;20216;-60
2022/05/08 07:05:16;;;;;;;;;;;11.90;99.90;;;;;;5023932;28;19917;-59
2022/05/08 07:07:42;;;;;;;;;;;11.40;99.90;;;;;;5002067;28;20424;-60
2022/05/08 07:10:07;;;;;;;;;;;11.50;99.90;;;;;;4986751;28;20427;-59
2022/05/08 07:12:36;;;;;;;;;;;12.30;99.90;;;;;;4986914;28;19961;-59
2022/05/08 07:15:03;;;;;;;;;;;12.00;99.90;;;;;;4986834;28;19906;-60
2022/05/08 07:17:28;;;;;;;;;;;11.80;99.90;;;;;;4989169;28;20080;-60
2022/05/08 07:19:54;;;;;;;;;;;11.90;99.90;;;;;;4989509;28;19910;-59
2022/05/08 07:22:19;;;;;;;;;;;11.80;99.90;;;;;;4985663;28;19941;-59
2022/05/08 07:24:45;;;;;;;;;;;11.80;99.90;;;;;;4986923;28;19914;-59
2022/05/08 07:27:11;;;;;;;;;;;11.70;99.90;;;;;;4987872;28;19906;-59
2022/05/08 07:29:37;;;;;;;;;;;11.60;99.90;;;;;;4985077;28;20361;-58
2022/05/08 07:32:02;;;;;;;;;;;11.80;99.90;;;;;;4986034;28;19961;-59
2022/05/08 07:37:12;;;;;;;;;;;10.80;99.90;;;;;;4983471;28;20488;-59
2022/05/08 07:39:37;;;;;;;;;;;10.90;99.90;;;;;;4986995;28;19961;-59
2022/05/08 07:42:03;;;;;;;;;;;11.10;99.90;;;;;;4985902;28;20321;-60
2022/05/08 07:44:28;;;;;;;;;;;10.80;99.90;;;;;;4986773;28;19910;-59
2022/05/08 07:46:54;;;;;;;;;;;11.40;99.90;;;;;;4984498;28;19949;-59
2022/05/08 07:49:19;;;;;;;;;;;11.60;99.90;;;;;;4986755;28;20078;-59
2022/05/08 07:51:45;;;;;;;;;;;11.10;99.90;;;;;;4986927;28;19917;-59
2022/05/08 07:54:11;;;;;;;;;;;11.40;99.90;;;;;;4985112;28;20445;-59
2022/05/08 07:56:36;;;;;;;;;;;11.30;99.90;;;;;;4985726;28;19992;-59
2022/05/08 07:59:02;;;;;;;;;;;11.10;99.90;;;;;;4985923;28;20339;-59
2022/05/08 08:01:28;;;;;;;;;;;11.50;99.90;;;;;;4986031;28;19914;-59
2022/05/08 08:03:53;;;;;;;;;;;11.70;99.90;;;;;;4984830;28;19920;-58
2022/05/08 08:06:19;;;;;;;;;;;11.80;99.90;;;;;;4985392;28;19917;-59
2022/05/08 08:08:44;;;;;;;;;;;12.30;99.90;;;;;;4986523;28;20490;-59
2022/05/08 08:11:11;;;;;;;;;;;12.10;99.90;;;;;;4984681;28;19910;-58
2022/05/08 08:13:36;;;;;;;;;;;12.50;99.90;;;;;;4984905;28;19917;-59
2022/05/08 08:16:02;;;;;;;;;;;12.60;99.90;;;;;;4982772;28;19988;-59
2022/05/08 08:18:28;;;;;;;;;;;12.60;99.90;;;;;;4985319;28;20274;-59
2022/05/08 08:20:54;;;;;;;;;;;13.90;99.90;;;;;;4984368;28;20606;-59
2022/05/08 08:23:19;;;;;;;;;;;13.60;99.90;;;;;;4984899;28;20788;-59
2022/05/08 08:25:45;;;;;;;;;;;13.10;99.90;;;;;;4985752;28;19920;-59
2022/05/08 08:28:11;;;;;;;;;;;13.00;99.90;;;;;;4981084;28;19914;-59
2022/05/08 08:30:36;;;;;;;;;;;12.80;99.90;;;;;;4983267;28;19965;-59
2022/05/08 08:33:02;;;;;;;;;;;13.30;99.90;;;;;;4983774;28;20271;-59
2022/05/08 08:35:27;;;;;;;;;;;12.50;99.90;;;;;;4985457;28;19914;-59
2022/05/08 08:37:53;;;;;;;;;;;13.20;99.90;;;;;;4985537;28;19937;-58
2022/05/08 08:40:18;;;;;;;;;;;13.80;99.90;;;;;;4988744;28;19964;-59
2022/05/08 08:42:44;;;;;;;;;;;14.60;99.90;;;;;;4985274;28;19909;-60
2022/05/08 08:47:55;;;;;;;;;;;15.30;99.90;;;;;;4984016;28;20325;-59
2022/05/08 08:50:26;;;;;;;;;;;15.10;99.90;;;;;;4986046;28;19972;-59
2022/05/08 08:52:53;;;;;;;;;;;13.70;99.90;;;;;;4984843;28;19918;-59
2022/05/08 08:55:19;;;;;;;;;;;13.50;99.90;;;;;;4985806;28;20218;-59
2022/05/08 08:57:45;;;;;;;;;;;14.10;99.90;;;;;;4984551;28;19913;-58
2022/05/08 09:00:11;;;;;;;;;;;14.30;99.90;;;;;;4981762;28;19920;-59
2022/05/08 09:02:37;;;;;;;;;;;13.70;99.90;;;;;;4984473;28;19918;-58
2022/05/08 09:05:07;;;;;;;;;;;13.20;99.90;;;;;;4984204;28;19976;-59
2022/05/08 09:07:38;;;;;;;;;;;13.00;99.90;;;;;;4984370;28;19925;-60
2022/05/08 09:10:14;;;;;;;;;;;13.60;99.90;;;;;;4980664;28;19989;-59
2022/05/08 09:12:44;;;;;;;;;;;14.00;99.90;;;;;;4983922;28;20545;-59
2022/05/08 09:15:19;;;;;;;;;;;13.80;99.90;;;;;;4983123;28;20482;-59
2022/05/08 09:17:48;;;;;;;;;;;13.30;99.90;;;;;;4985034;28;19997;-59
2022/05/08 09:20:26;;;;;;;;;;;13.20;99.90;;;;;;4982074;28;20354;-59
2022/05/08 09:23:01;;;;;;;;;;;13.80;99.90;;;;;;4986155;28;20321;-59
2022/05/08 09:25:45;;;;;;;;;;;14.10;99.90;;;;;;4983185;28;20294;-58
2022/05/08 09:28:36;;;;;;;;;;;13.90;99.90;;;;;;4982838;28;19913;-58
2022/05/08 09:31:21;;;;;;;;;;;13.00;99.90;;;;;;4981338;28;20358;-59
2022/05/08 09:33:47;;;;;;;;;;;13.00;99.90;;;;;;4981796;28;19972;-59
2022/05/08 09:36:25;;;;;;;;;;;13.60;99.90;;;;;;4984617;28;20028;-59
2022/05/08 09:38:55;;;;;;;;;;;13.40;99.90;;;;;;4985571;28;19991;-60
2022/05/08 09:41:20;;;;;;;;;;;13.10;99.90;;;;;;4981312;28;19913;-59
2022/05/08 09:43:49;;;;;;;;;;;13.40;99.90;;;;;;4985318;28;20157;-59
2022/05/08 09:46:15;;;;;;;;;;;14.30;99.90;;;;;;4983560;28;20049;-59
2022/05/08 09:48:41;;;;;;;;;;;14.50;99.90;;;;;;4984093;28;20217;-59
2022/05/08 09:51:07;;;;;;;;;;;14.00;99.90;;;;;;4983875;28;19937;-59
2022/05/08 09:53:34;;;;;;;;;;;13.90;99.90;;;;;;4983864;28;20330;-58
2022/05/08 09:56:09;;;;;;;;;;;14.20;99.90;;;;;;4983634;28;19909;-58
2022/05/08 09:58:41;;;;;;;;;;;15.10;99.90;;;;;;4986766;28;19917;-59
2022/05/08 10:01:09;;;;;;;;;;;14.70;99.90;;;;;;4985738;28;20194;-59
2022/05/08 10:03:35;;;;;;;;;;;14.70;99.90;;;;;;4986072;28;19920;-59
2022/05/08 10:06:01;;;;;;;;;;;15.30;99.90;;;;;;4985914;28;19910;-59
2022/05/08 10:08:39;;;;;;;;;;;16.30;99.90;;;;;;4986740;28;19956;-59
2022/05/08 10:13:57;;;;;;;;;;;17.20;99.90;;;;;;4985036;28;20046;-60
2022/05/08 10:16:41;;;;;;;;;;;16.60;99.90;;;;;;4982184;28;19916;-59
2022/05/08 10:22:19;;;;;;;;;;;16.50;99.90;;;;;;4984513;28;19963;-60
2022/05/08 10:24:53;;;;;;;;;;;16.70;99.90;;;;;;4992364;28;19984;-59
2022/05/08 10:27:18;;;;;;;;;;;17.80;99.90;;;;;;4987966;28;20292;-60
2022/05/08 10:29:50;;;;;;;;;;;18.00;99.90;;;;;;4991201;28;19944;-59
2022/05/08 10:32:34;;;;;;;;;;;17.70;99.90;;;;;;4984246;28;20199;-59
2022/05/08 10:35:14;;;;;;;;;;;17.70;99.90;;;;;;4986354;28;19914;-59
2022/05/08 10:37:43;;;;;;;;;;;18.30;99.90;;;;;;4988882;28;19913;-59
2022/05/08 10:40:21;;;;;;;;;;;17.70;99.90;;;;;;4995143;28;19910;-59
2022/05/08 10:42:47;;;;;;;;;;;17.10;99.90;;;;;;4991408;28;20358;-59
2022/05/08 10:45:36;;;;;;;;;;;17.70;99.90;;;;;;4989778;28;19921;-59
2022/05/08 10:48:14;;;;;;;;;;;18.20;99.90;;;;;;4988716;28;20244;-59
2022/05/08 10:50:41;;;;;;;;;;;18.20;99.90;;;;;;4988368;28;20041;-59
2022/05/08 10:53:19;;;;;;;;;;;19.10;99.40;;;;;;4986328;28;19926;-59
2022/05/08 10:55:47;;;;;;;;;;;17.60;97.30;;;;;;4989123;28;19963;-59
2022/05/08 10:58:16;;;;;;;;;;;16.60;99.90;;;;;;4983269;28;20350;-59
2022/05/08 11:00:41;;;;;;;;;;;17.10;99.90;;;;;;4984687;28;19914;-59
2022/05/08 11:03:09;;;;;;;;;;;19.50;98.50;;;;;;4988877;28;20377;-59
2022/05/08 11:05:51;;;;;;;;;;;20.00;93.60;;;;;;4986460;28;19914;-59
2022/05/08 11:08:36;;;;;;;;;;;19.30;92.00;;;;;;4985076;28;19914;-59
2022/05/08 11:11:03;;;;;;;;;;;20.60;91.90;;;;;;4984049;28;20366;-60
2022/05/08 11:13:36;;;;;;;;;;;19.60;93.20;;;;;;4987686;28;20356;-59
2022/05/08 11:16:02;;;;;;;;;;;22.00;91.20;;;;;;4986220;28;19938;-59
2022/05/08 11:18:30;;;;;;;;;;;21.20;91.30;;;;;;4989373;28;19909;-60
2022/05/08 11:21:02;;;;;;;;;;;21.00;91.40;;;;;;4991588;28;19906;-59
2022/05/08 11:23:29;;;;;;;;;;;19.70;90.50;;;;;;4991238;28;19922;-59
2022/05/08 11:25:58;;;;;;;;;;;21.90;91.20;;;;;;4991885;28;19956;-59
2022/05/08 11:28:24;;;;;;;;;;;20.50;91.50;;;;;;4988811;28;19913;-60
2022/05/08 11:30:50;;;;;;;;;;;22.60;89.40;;;;;;4986730;28;19920;-59
2022/05/08 11:36:04;;;;;;;;;;;23.40;88.20;;;;;;4991238;28;19917;-59
2022/05/08 11:38:50;;;;;;;;;;;22.50;84.20;;;;;;4989193;28;20012;-60
2022/05/08 11:41:27;;;;;;;;;;;22.40;87.10;;;;;;4987647;28;19921;-59
2022/05/08 11:43:56;;;;;;;;;;;23.20;84.10;;;;;;4987656;28;20402;-59
2022/05/08 11:46:31;;;;;;;;;;;23.50;81.80;;;;;;4991269;28;19915;-60
2022/05/08 11:48:56;;;;;;;;;;;22.60;82.90;;;;;;4988708;28;19921;-59
2022/05/08 11:51:22;;;;;;;;;;;22.50;85.90;;;;;;4987005;28;20354;-60
2022/05/08 11:53:51;;;;;;;;;;;21.90;84.80;;;;;;4980833;28;20032;-59
2022/05/08 11:56:19;;;;;;;;;;;23.40;83.80;;;;;;4983663;28;19921;-59
2022/05/08 11:58:47;;;;;;;;;;;24.90;75.60;;;;;;4983746;28;19917;-59
2022/05/08 12:01:29;;;;;;;;;;;20.90;83.00;;;;;;4983777;28;19936;-59
2022/05/08 12:03:56;;;;;;;;;;;21.30;85.20;;;;;;4984827;28;19952;-59
2022/05/08 12:06:22;;;;;;;;;;;21.70;84.90;;;;;;4984815;28;20285;-59
2022/05/08 12:08:47;;;;;;;;;;;21.00;84.80;;;;;;4983924;28;19909;-58
2022/05/08 12:11:36;;;;;;;;;;;23.20;83.30;;;;;;4982278;28;19913;-59
2022/05/08 12:14:08;;;;;;;;;;;23.30;79.60;;;;;;4982632;28;19909;-59
2022/05/08 12:16:34;;;;;;;;;;;21.80;79.40;;;;;;4981346;28;19956;-60
2022/05/08 12:19:10;;;;;;;;;;;22.00;80.90;;;;;;4983745;28;20354;-59
2022/05/08 12:21:36;;;;;;;;;;;22.90;82.00;;;;;;4981825;28;19913;-59
2022/05/08 12:24:11;;;;;;;;;;;21.40;81.20;;;;;;4984247;28;19910;-59
2022/05/08 12:26:37;;;;;;;;;;;21.40;82.00;;;;;;4979817;28;19989;-59
2022/05/08 12:29:05;;;;;;;;;;;20.50;86.40;;;;;;4984090;28;20024;-59
2022/05/08 12:31:30;;;;;;;;;;;21.30;88.10;;;;;;4983944;28;19997;-59
2022/05/08 12:33:56;;;;;;;;;;;22.50;83.30;;;;;;4984323;28;20031;-59
2022/05/08 12:36:21;;;;;;;;;;;22.60;84.00;;;;;;4984342;28;19910;-59
2022/05/08 12:38:47;;;;;;;;;;;22.60;84.60;;;;;;4982186;28;19910;-59
2022/05/08 12:41:12;;;;;;;;;;;22.90;83.80;;;;;;4984748;28;19909;-60
2022/05/08 12:43:38;;;;;;;;;;;23.40;81.50;;;;;;4987958;28;19906;-58
2022/05/08 12:46:03;;;;;;;;;;;22.90;79.90;;;;;;4986646;28;20381;-59
2022/05/08 12:48:29;;;;;;;;;;;23.80;78.10;;;;;;4984622;28;20004;-59
2022/05/08 12:50:54;;;;;;;;;;;22.40;78.50;;;;;;4985340;28;20285;-59
2022/05/08 12:53:20;;;;;;;;;;;22.20;78.90;;;;;;4985212;28;20360;-59
2022/05/08 12:55:45;;;;;;;;;;;21.70;83.80;;;;;;4984530;28;20285;-59
2022/05/08 13:00:55;;;;;;;;;;;21.10;83.10;;;;;;4981075;28;20289;-59
2022/05/08 13:03:21;;;;;;;;;;;21.30;80.60;;;;;;4984228;28;19914;-59
2022/05/08 13:05:48;;;;;;;;;;;22.90;81.00;;;;;;4984603;28;19913;-59
2022/05/08 13:08:13;;;;;;;;;;;23.40;78.00;;;;;;4980882;28;19917;-58
2022/05/08 13:10:39;;;;;;;;;;;24.40;76.80;;;;;;4984397;28;20300;-60
2022/05/08 13:13:05;;;;;;;;;;;25.40;75.40;;;;;;4984106;28;19920;-60
2022/05/08 13:15:31;;;;;;;;;;;25.20;72.00;;;;;;4982538;28;19920;-60
2022/05/08 13:17:56;;;;;;;;;;;24.30;71.10;;;;;;4984043;28;19913;-59
2022/05/08 13:20:23;;;;;;;;;;;24.00;73.10;;;;;;4981477;28;19964;-59
2022/05/08 13:22:48;;;;;;;;;;;23.50;72.10;;;;;;4985282;28;20353;-59
2022/05/08 13:25:13;;;;;;;;;;;22.40;75.30;;;;;;4986063;28;19945;-59
2022/05/08 13:27:39;;;;;;;;;;;21.50;76.00;;;;;;5016195;28;20296;-59
2022/05/08 13:30:05;;;;;;;;;;;24.60;74.50;;;;;;4978181;28;19937;-58
2022/05/08 13:32:30;;;;;;;;;;;23.50;72.30;;;;;;4986337;28;20381;-59
2022/05/08 13:34:56;;;;;;;;;;;22.80;74.60;;;;;;4987853;28;19918;-60
2022/05/08 13:37:21;;;;;;;;;;;22.30;77.20;;;;;;4987553;28;19910;-60
2022/05/08 13:39:47;;;;;;;;;;;23.20;76.20;;;;;;4987544;28;19910;-59
2022/05/08 13:42:16;;;;;;;;;;;24.90;74.60;;;;;;4987160;28;20333;-60
2022/05/08 13:44:41;;;;;;;;;;;26.70;71.10;;;;;;4988343;28;19910;-59
2022/05/08 13:47:07;;;;;;;;;;;25.10;66.00;;;;;;4983996;28;20020;-59
2022/05/08 13:49:32;;;;;;;;;;;23.50;71.10;;;;;;4987307;28;20345;-59
2022/05/08 13:51:58;;;;;;;;;;;23.30;72.60;;;;;;4987806;28;19920;-60
2022/05/08 13:54:23;;;;;;;;;;;23.00;71.60;;;;;;4986362;28;19924;-60
2022/05/08 13:56:51;;;;;;;;;;;24.00;73.80;;;;;;4987573;28;19909;-59
2022/05/08 13:59:16;;;;;;;;;;;24.60;71.00;;;;;;4983395;28;19922;-59
2022/05/08 14:01:42;;;;;;;;;;;23.00;74.10;;;;;;4988117;28;19920;-59
2022/05/08 14:04:08;;;;;;;;;;;23.10;72.80;;;;;;4990451;28;19906;-59
2022/05/08 14:06:34;;;;;;;;;;;25.20;71.30;;;;;;4986192;28;19913;-59
2022/05/08 14:09:00;;;;;;;;;;;26.70;69.90;;;;;;4986899;28;19917;-59
2022/05/08 14:11:26;;;;;;;;;;;27.80;66.30;;;;;;4986333;28;20362;-59
2022/05/08 14:13:51;;;;;;;;;;;28.60;64.40;;;;;;4986234;28;19964;-59
2022/05/08 14:16:18;;;;;;;;;;;26.50;66.90;;;;;;4985362;28;19988;-59
2022/05/08 14:18:43;;;;;;;;;;;25.50;65.60;;;;;;4985946;28;19996;-59
2022/05/08 14:21:09;;;;;;;;;;;23.60;70.10;;;;;;4987105;28;19918;-59
2022/05/08 14:23:35;;;;;;;;;;;23.90;69.90;;;;;;4986892;28;19917;-59
2022/05/08 14:26:01;;;;;;;;;;;24.50;71.60;;;;;;4983841;28;20241;-59
2022/05/08 14:28:26;;;;;;;;;;;24.30;70.20;;;;;;4985208;28;20186;-59
2022/05/08 14:36:20;;;;;;;;;;;22.50;72.90;;;;;;4985010;28;19936;-59
2022/05/08 14:38:46;;;;;;;;;;;24.00;72.60;;;;;;4985883;28;19913;-59
2022/05/08 14:41:11;;;;;;;;;;;24.70;66.60;;;;;;4985556;28;19997;-59
2022/05/08 14:43:37;;;;;;;;;;;22.80;70.90;;;;;;4988794;28;19913;-59
2022/05/08 14:46:03;;;;;;;;;;;23.60;71.90;;;;;;4988243;28;19914;-59
2022/05/08 14:48:28;;;;;;;;;;;22.80;72.90;;;;;;4983730;28;20384;-59
2022/05/08 14:50:54;;;;;;;;;;;24.00;71.30;;;;;;4986281;28;19909;-59
2022/05/08 14:53:20;;;;;;;;;;;26.00;69.20;;;;;;4987585;28;20016;-59
2022/05/08 14:55:47;;;;;;;;;;;25.80;68.10;;;;;;4986453;28;20489;-59
2022/05/08 14:58:14;;;;;;;;;;;25.10;68.80;;;;;;4985790;28;20256;-59